Time;durP1;ratioP1;P1;durP2;ratioP2;P2;SDS_P1;SDS_P2;PMS_P1;PMS_P2;Temp;Humidity;BMP_temperature;BMP_pressure;BME280_temperature;BME280_humidity;BME280_pressure;Samples;Min_cycle;Max_cycle;Signal;HPM_P1;HPM_P2
2023/10/26 00:01:58;;;;;;;;;;;;;;;20.08;61.52;98973.19;5039183;28;6206;-69
2023/10/26 00:04:24;;;;;;;;;;;;;;;20.08;61.63;98967.44;5040060;28;2085;-70
2023/10/26 00:06:51;;;;;;;;;;;;;;;20.07;61.65;98968.88;5040559;28;2176;-68
2023/10/26 00:09:17;;;;;;;;;;;;;;;20.06;61.62;98958.78;5040249;28;2936;-71
2023/10/26 00:11:44;;;;;;;;;;;;;;;20.05;61.64;98957.34;5041473;28;2307;-70
2023/10/26 00:14:10;;;;;;;;;;;;;;;20.07;61.60;98965.28;5039704;28;2122;-70
2023/10/26 00:16:36;;;;;;;;;;;;;;;20.07;61.54;98959.53;5041938;28;2173;-70
2023/10/26 00:19:03;;;;;;;;;;;;;;;20.06;61.67;98955.91;5041426;28;1594;-70
2023/10/26 00:21:30;;;;;;;;;;;;;;;20.06;61.38;98955.19;5040619;28;2121;-70
2023/10/26 00:23:56;;;;;;;;;;;;;;;20.05;61.53;98956.63;5037539;28;2108;-70
2023/10/26 00:26:23;;;;;;;;;;;;;;;20.05;61.64;98950.88;5041412;28;2002;-70
2023/10/26 00:28:50;;;;;;;;;;;;;;;20.05;61.45;98945.13;5025965;28;1672;-70
2023/10/26 00:31:16;;;;;;;;;;;;;;;20.05;61.48;98945.84;5021527;28;6227;-70
2023/10/26 00:33:43;;;;;;;;;;;;;;;20.03;61.38;98937.19;5023394;28;2185;-70
2023/10/26 00:36:10;;;;;;;;;;;;;;;20.03;61.46;98942.22;5040911;28;2134;-70
2023/10/26 00:38:36;;;;;;;;;;;;;;;20.02;61.54;98941.50;5040356;28;1878;-70
2023/10/26 00:41:03;;;;;;;;;;;;;;;20.02;61.64;98935.75;5041653;28;2108;-70
2023/10/26 00:43:30;;;;;;;;;;;;;;;20.02;61.47;98929.25;5022657;28;2208;-70
2023/10/26 00:45:56;;;;;;;;;;;;;;;20.02;61.54;98920.63;5025007;28;2190;-69
2023/10/26 00:48:23;;;;;;;;;;;;;;;20.02;61.50;98923.50;5023103;28;2189;-70
2023/10/26 00:50:49;;;;;;;;;;;;;;;20.01;61.63;98919.91;5019781;28;2573;-70
2023/10/26 00:53:16;;;;;;;;;;;;;;;20.00;61.34;98917.75;5040034;28;2145;-70
2023/10/26 00:55:43;;;;;;;;;;;;;;;20.02;61.45;98920.63;5025015;28;2080;-70
2023/10/26 00:58:09;;;;;;;;;;;;;;;20.02;61.62;98915.63;5024132;28;2116;-70
2023/10/26 01:00:36;;;;;;;;;;;;;;;20.01;61.11;98913.44;5041262;28;6697;-70
2023/10/26 01:03:03;;;;;;;;;;;;;;;20.00;61.57;98915.59;5022912;28;2091;-70
2023/10/26 01:05:29;;;;;;;;;;;;;;;20.00;61.46;98909.84;5009497;28;1722;-70
2023/10/26 01:07:56;;;;;;;;;;;;;;;19.99;61.47;98913.41;5036928;28;2295;-70
2023/10/26 01:10:23;;;;;;;;;;;;;;;19.99;61.47;98907.66;5038755;28;2189;-70
2023/10/26 01:12:49;;;;;;;;;;;;;;;19.99;61.46;98899.78;5038643;28;2134;-70
2023/10/26 01:15:17;;;;;;;;;;;;;;;19.99;61.36;98899.78;5039141;28;2216;-70
2023/10/26 01:17:43;;;;;;;;;;;;;;;19.99;61.56;98901.91;5038359;28;2283;-70
2023/10/26 01:20:10;;;;;;;;;;;;;;;19.99;61.24;98905.50;5038673;28;2236;-70
2023/10/26 01:22:37;;;;;;;;;;;;;;;19.98;61.49;98901.19;5029255;28;2187;-70
2023/10/26 01:25:03;;;;;;;;;;;;;;;19.98;61.20;98900.47;5040936;28;2174;-70
2023/10/26 01:27:29;;;;;;;;;;;;;;;19.98;61.36;98901.19;5041010;28;2263;-70
2023/10/26 01:29:56;;;;;;;;;;;;;;;19.98;61.34;98898.31;5040817;28;2184;-70
2023/10/26 01:32:25;;;;;;;;;;;;;;;19.97;61.55;98893.28;5040011;28;6706;-70
2023/10/26 01:34:52;;;;;;;;;;;;;;;19.97;61.56;98888.25;5045264;28;2122;-71
2023/10/26 01:37:18;;;;;;;;;;;;;;;19.96;61.51;98892.53;5044685;28;2241;-70
2023/10/26 01:39:45;;;;;;;;;;;;;;;19.97;61.31;98885.38;5042801;28;2133;-70
2023/10/26 01:42:12;;;;;;;;;;;;;;;19.96;61.40;98886.09;5042984;28;2016;-70
2023/10/26 01:44:38;;;;;;;;;;;;;;;19.97;61.31;98888.25;5043687;28;2069;-70
2023/10/26 01:47:05;;;;;;;;;;;;;;;19.95;61.47;98888.22;5043266;28;2176;-70
2023/10/26 01:49:32;;;;;;;;;;;;;;;19.95;61.31;98879.63;5025830;28;2047;-69
2023/10/26 01:51:58;;;;;;;;;;;;;;;19.94;61.60;98883.91;5044042;28;1617;-70
2023/10/26 01:54:24;;;;;;;;;;;;;;;19.95;61.30;98876.75;5045366;28;2050;-70
2023/10/26 01:56:51;;;;;;;;;;;;;;;19.94;61.22;98883.19;5042186;28;1878;-70
2023/10/26 01:59:18;;;;;;;;;;;;;;;19.94;61.19;98872.41;5022869;28;2230;-70
2023/10/26 02:01:44;;;;;;;;;;;;;;;19.95;61.52;98873.88;5026044;28;6509;-70
2023/10/26 02:04:10;;;;;;;;;;;;;;;19.94;61.38;98871.69;5043525;28;2186;-70
2023/10/26 02:06:37;;;;;;;;;;;;;;;19.93;61.37;98870.97;5042551;28;1906;-70
2023/10/26 02:09:04;;;;;;;;;;;;;;;19.93;61.32;98876.72;5020126;28;2091;-70
2023/10/26 02:11:31;;;;;;;;;;;;;;;19.93;61.20;98865.22;5028252;28;1695;-71
2023/10/26 02:13:58;;;;;;;;;;;;;;;19.94;61.42;98865.94;5026294;28;1816;-71
2023/10/26 02:16:24;;;;;;;;;;;;;;;19.92;61.37;98872.38;5025198;28;1679;-70
2023/10/26 02:18:51;;;;;;;;;;;;;;;19.93;61.23;98859.47;5031924;28;2137;-70
2023/10/26 02:21:17;;;;;;;;;;;;;;;19.93;61.48;98862.34;5042412;28;2109;-70
2023/10/26 02:23:44;;;;;;;;;;;;;;;19.92;61.30;98855.13;5041371;28;2086;-71
2023/10/26 02:26:11;;;;;;;;;;;;;;;19.92;61.39;98863.75;5041959;28;2251;-70
2023/10/26 02:28:37;;;;;;;;;;;;;;;19.92;61.42;98858.00;5026963;28;2126;-69
2023/10/26 02:31:04;;;;;;;;;;;;;;;19.90;61.56;98855.09;5042137;28;6266;-70
2023/10/26 02:33:30;;;;;;;;;;;;;;;19.88;61.40;98863.69;5030593;28;2086;-70
2023/10/26 02:35:57;;;;;;;;;;;;;;;19.90;61.31;98855.09;5040831;28;2209;-70
2023/10/26 02:38:23;;;;;;;;;;;;;;;19.91;61.38;98855.84;5043839;28;2519;-71
2023/10/26 02:40:51;;;;;;;;;;;;;;;19.90;61.35;98863.00;5027193;28;1879;-70
2023/10/26 02:43:19;;;;;;;;;;;;;;;19.91;61.37;98855.84;5032522;28;1559;-70
2023/10/26 02:45:46;;;;;;;;;;;;;;;19.91;61.25;98865.19;5026324;28;2014;-70
2023/10/26 02:48:12;;;;;;;;;;;;;;;19.94;61.13;98860.91;5042499;28;1968;-71
2023/10/26 02:50:39;;;;;;;;;;;;;;;19.96;61.28;98857.34;5042174;28;2205;-70
2023/10/26 02:53:05;;;;;;;;;;;;;;;19.97;61.32;98853.78;5044166;28;1559;-70
2023/10/26 02:55:32;;;;;;;;;;;;;;;19.98;61.25;98848.78;5040604;28;2118;-70
2023/10/26 02:57:58;;;;;;;;;;;;;;;19.99;61.56;98850.94;5042916;28;2187;-70
2023/10/26 03:00:25;;;;;;;;;;;;;;;19.99;61.67;98850.94;5041934;28;6186;-71
2023/10/26 03:02:51;;;;;;;;;;;;;;;19.99;61.58;98845.19;5042979;28;2245;-70
2023/10/26 03:05:18;;;;;;;;;;;;;;;20.00;61.59;98851.69;5042143;28;2279;-71
2023/10/26 03:07:45;;;;;;;;;;;;;;;20.01;61.47;98848.09;5042998;28;1918;-70
2023/10/26 03:10:12;;;;;;;;;;;;;;;20.01;61.60;98841.63;5041710;28;2144;-70
2023/10/26 03:12:38;;;;;;;;;;;;;;;20.00;61.47;98840.91;5042894;28;1526;-70
2023/10/26 03:15:05;;;;;;;;;;;;;;;20.00;61.50;98843.78;5042111;28;2110;-70
2023/10/26 03:17:31;;;;;;;;;;;;;;;20.00;61.35;98840.91;5043454;28;1895;-70
2023/10/26 03:19:59;;;;;;;;;;;;;;;20.01;61.57;98833.00;5041412;28;2151;-70
2023/10/26 03:22:25;;;;;;;;;;;;;;;20.01;61.64;98835.88;5039043;28;2132;-70
2023/10/26 03:24:52;;;;;;;;;;;;;;;20.01;61.59;98836.59;5040974;28;2193;-70
2023/10/26 03:27:18;;;;;;;;;;;;;;;20.02;61.40;98843.06;5038843;28;2255;-70
2023/10/26 03:29:45;;;;;;;;;;;;;;;20.02;61.66;98838.06;5023673;28;2154;-70
2023/10/26 03:32:12;;;;;;;;;;;;;;;20.04;61.67;98835.25;5038289;28;6184;-70
2023/10/26 03:34:38;;;;;;;;;;;;;;;20.05;61.31;98836.69;5041128;28;2125;-70
2023/10/26 03:37:05;;;;;;;;;;;;;;;20.06;61.59;98832.38;5025230;28;1912;-70
2023/10/26 03:39:33;;;;;;;;;;;;;;;20.06;61.48;98843.13;5024475;28;2248;-70
2023/10/26 03:42:00;;;;;;;;;;;;;;;20.07;61.47;98841.75;5040654;28;2134;-71
2023/10/26 03:44:26;;;;;;;;;;;;;;;20.07;61.59;98844.59;5040799;28;2098;-70
2023/10/26 03:46:53;;;;;;;;;;;;;;;20.06;61.79;98843.88;5023571;28;1906;-70
2023/10/26 03:49:19;;;;;;;;;;;;;;;20.07;61.52;98844.59;5043310;28;2097;-70
2023/10/26 03:51:46;;;;;;;;;;;;;;;20.06;61.70;98841.00;5007683;28;2345;-70
2023/10/26 03:54:12;;;;;;;;;;;;;;;20.07;61.62;98844.59;5041055;28;2169;-70
2023/10/26 03:56:39;;;;;;;;;;;;;;;20.05;61.39;98839.56;5040631;28;2150;-70
2023/10/26 03:59:05;;;;;;;;;;;;;;;20.06;62.01;98837.41;5042942;28;2196;-70
2023/10/26 04:01:32;;;;;;;;;;;;;;;20.05;61.72;98839.56;5037077;28;6120;-70
2023/10/26 04:03:58;;;;;;;;;;;;;;;20.06;61.73;98837.41;5041965;28;2125;-70
2023/10/26 04:06:25;;;;;;;;;;;;;;;20.05;61.70;98833.81;5042283;28;2153;-71
2023/10/26 04:08:56;;;;;;;;;;;;;;;20.04;61.92;98840.97;5041032;28;2083;-71
2023/10/26 04:11:23;;;;;;;;;;;;;;;20.03;61.57;98839.50;5040906;28;2126;-70
2023/10/26 04:13:49;;;;;;;;;;;;;;;20.03;61.74;98833.78;5040849;28;2237;-71
2023/10/26 04:16:15;;;;;;;;;;;;;;;20.03;61.96;98835.91;5040764;28;2063;-70
2023/10/26 04:18:42;;;;;;;;;;;;;;;20.03;61.80;98833.06;5041585;28;2012;-71
2023/10/26 04:21:08;;;;;;;;;;;;;;;20.02;61.77;98825.84;5040862;28;2380;-70
2023/10/26 04:23:35;;;;;;;;;;;;;;;20.01;61.73;98819.38;5041465;28;2196;-70
2023/10/26 04:26:01;;;;;;;;;;;;;;;20.02;61.76;98820.09;5039403;28;2145;-71
2023/10/26 04:28:28;;;;;;;;;;;;;;;20.03;61.98;98818.69;5041526;28;2113;-71
2023/10/26 04:30:54;;;;;;;;;;;;;;;20.02;61.83;98820.84;5041040;28;6280;-70
2023/10/26 04:33:21;;;;;;;;;;;;;;;20.05;61.68;98813.69;5040522;28;2153;-71
2023/10/26 04:35:48;;;;;;;;;;;;;;;20.06;61.65;98815.13;5038267;28;2308;-70
2023/10/26 04:38:14;;;;;;;;;;;;;;;20.08;61.77;98817.31;5039819;28;2122;-70
2023/10/26 04:40:41;;;;;;;;;;;;;;;20.09;61.50;98824.53;5039281;28;2145;-71
2023/10/26 04:43:08;;;;;;;;;;;;;;;20.09;61.69;98813.03;5040842;28;2149;-83
2023/10/26 04:45:35;;;;;;;;;;;;;;;20.08;61.42;98820.91;5039706;28;2181;-85
2023/10/26 04:48:02;;;;;;;;;;;;;;;20.11;61.60;98815.19;5041519;28;2168;-85
2023/10/26 04:50:32;;;;;;;;;;;;;;;20.11;61.68;98809.44;5037970;28;2200;-81
2023/10/26 04:52:59;;;;;;;;;;;;;;;20.09;61.50;98808.00;5041861;28;2247;-83
2023/10/26 04:55:30;;;;;;;;;;;;;;;20.09;61.71;98805.13;5042930;28;1987;-79
2023/10/26 04:57:57;;;;;;;;;;;;;;;20.10;61.80;98808.72;5040153;28;2133;-80
2023/10/26 05:00:24;;;;;;;;;;;;;;;20.10;61.75;98808.72;5039007;28;6349;-81
2023/10/26 05:02:50;;;;;;;;;;;;;;;20.11;61.75;98803.72;5041100;28;2090;-83
2023/10/26 05:05:17;;;;;;;;;;;;;;;20.09;61.79;98813.75;5040411;28;2178;-84
2023/10/26 05:07:44;;;;;;;;;;;;;;;20.08;61.86;98806.53;5038930;28;2097;-84
2023/10/26 05:10:10;;;;;;;;;;;;;;;20.09;62.01;98813.75;5040221;28;2189;-80
2023/10/26 05:12:37;;;;;;;;;;;;;;;20.08;61.80;98812.28;5041863;28;2191;-85
2023/10/26 05:15:03;;;;;;;;;;;;;;;20.08;62.00;98818.03;5038645;28;2244;-84
2023/10/26 05:17:32;;;;;;;;;;;;;;;20.06;61.82;98826.63;5038619;28;2232;-77
2023/10/26 05:19:59;;;;;;;;;;;;;;;20.11;61.79;98826.69;5034792;28;2157;-75
2023/10/26 05:22:26;;;;;;;;;;;;;;;20.12;61.66;98828.16;5035965;28;2232;-74
2023/10/26 05:24:53;;;;;;;;;;;;;;;20.26;63.06;98826.22;5035180;28;2236;-74
2023/10/26 05:27:19;;;;;;;;;;;;;;;20.46;62.54;98825.78;5036735;28;2268;-74
2023/10/26 05:29:45;;;;;;;;;;;;;;;20.59;62.80;98825.94;5030974;28;2192;-80
2023/10/26 05:32:12;;;;;;;;;;;;;;;20.63;61.96;98817.38;5030806;28;6239;-73
2023/10/26 05:34:38;;;;;;;;;;;;;;;20.67;62.17;98814.56;5029993;28;4031;-73
2023/10/26 05:37:05;;;;;;;;;;;;;;;20.71;61.66;98820.38;5039632;28;2044;-73
2023/10/26 05:39:31;;;;;;;;;;;;;;;20.74;61.80;98812.50;5037440;28;2177;-72
2023/10/26 05:41:58;;;;;;;;;;;;;;;20.76;61.63;98821.88;5035795;28;2207;-74
2023/10/26 05:44:25;;;;;;;;;;;;;;;20.67;61.78;98814.56;5035171;28;2189;-73
2023/10/26 05:46:51;;;;;;;;;;;;;;;20.69;62.01;98809.56;5038459;28;2168;-73
2023/10/26 05:49:18;;;;;;;;;;;;;;;20.71;62.26;98815.34;5039811;28;2138;-73
2023/10/26 05:51:44;;;;;;;;;;;;;;;20.59;62.09;98814.44;5039670;28;2233;-76
2023/10/26 05:54:11;;;;;;;;;;;;;;;20.78;62.16;98816.16;5037412;28;2232;-88
2023/10/26 05:56:37;;;;;;;;;;;;;;;20.81;61.92;98817.59;5037216;28;2184;-82
2023/10/26 05:59:04;;;;;;;;;;;;;;;20.79;61.99;98820.47;5039058;28;2146;-77
2023/10/26 06:01:31;;;;;;;;;;;;;;;20.80;61.88;98827.69;5036475;28;6346;-75
2023/10/26 06:03:57;;;;;;;;;;;;;;;20.79;61.83;98825.50;5037812;28;2082;-74
2023/10/26 06:06:24;;;;;;;;;;;;;;;20.76;61.82;98827.63;5036201;28;2244;-73
2023/10/26 06:08:50;;;;;;;;;;;;;;;20.78;61.45;98830.53;5039641;28;2141;-74
2023/10/26 06:11:17;;;;;;;;;;;;;;;20.82;61.38;98829.84;5040494;28;2541;-76
2023/10/26 06:13:44;;;;;;;;;;;;;;;20.79;61.38;98831.97;5041389;28;2125;-75
2023/10/26 06:16:15;;;;;;;;;;;;;;;20.74;61.14;98835.50;5040171;28;2162;-75
2023/10/26 06:18:42;;;;;;;;;;;;;;;20.70;61.18;98842.63;5041970;28;2129;-74
2023/10/26 06:21:09;;;;;;;;;;;;;;;20.68;61.22;98839.00;5041970;28;2526;-74
2023/10/26 06:23:35;;;;;;;;;;;;;;;20.69;60.98;98843.34;5042985;28;2129;-74
2023/10/26 06:26:03;;;;;;;;;;;;;;;20.69;60.79;98834.72;5040874;28;2243;-74
2023/10/26 06:28:29;;;;;;;;;;;;;;;20.70;60.99;98842.63;5040836;28;2275;-74
2023/10/26 06:30:56;;;;;;;;;;;;;;;20.71;60.71;98849.13;5040535;28;7098;-75
2023/10/26 06:33:23;;;;;;;;;;;;;;;20.69;60.92;98851.97;5041954;28;2471;-73
2023/10/26 06:35:49;;;;;;;;;;;;;;;20.74;60.99;98847.72;5039981;28;2161;-73
2023/10/26 06:38:15;;;;;;;;;;;;;;;20.63;60.44;98854.75;5041651;28;2090;-73
2023/10/26 06:40:44;;;;;;;;;;;;;;;20.44;58.75;98854.50;5040539;28;2232;-72
2023/10/26 06:43:11;;;;;;;;;;;;;;;20.34;58.01;98848.59;5041050;28;2151;-73
2023/10/26 06:45:37;;;;;;;;;;;;;;;20.35;58.11;98849.31;5040788;28;2054;-72
2023/10/26 06:48:03;;;;;;;;;;;;;;;20.48;57.67;98845.22;5038822;28;2180;-77
2023/10/26 06:50:30;;;;;;;;;;;;;;;19.76;56.25;98857.75;5042319;28;2180;-89
2023/10/26 06:52:56;;;;;;;;;;;;;;;19.01;56.04;98866.38;5042391;28;2279;-77
2023/10/26 06:55:23;;;;;;;;;;;;;;;18.68;56.15;98853.50;5039955;28;2248;-77
2023/10/26 06:57:56;;;;;;;;;;;;;;;18.46;56.41;98863.06;5039532;28;2306;-77
2023/10/26 07:00:23;;;;;;;;;;;;;;;18.14;56.77;98866.66;5039320;28;6663;-77
2023/10/26 07:02:49;;;;;;;;;;;;;;;18.36;56.38;98866.41;5038411;28;2209;-73
2023/10/26 07:05:16;;;;;;;;;;;;;;;19.02;55.48;98871.44;5036736;28;2437;-73
2023/10/26 07:07:42;;;;;;;;;;;;;;;19.56;55.19;98864.56;5039207;28;2212;-72
2023/10/26 07:10:15;;;;;;;;;;;;;;;20.02;55.98;98869.69;5038100;28;2260;-75
2023/10/26 07:12:44;;;;;;;;;;;;;;;20.13;55.31;98876.28;5039380;28;2226;-76
2023/10/26 07:15:11;;;;;;;;;;;;;;;20.04;56.18;98872.59;5039589;28;2266;-74
2023/10/26 07:17:39;;;;;;;;;;;;;;;20.12;57.29;98877.00;4989323;28;2126;-73
2023/10/26 07:20:07;;;;;;;;;;;;;;;20.13;57.92;98875.56;5039862;28;2231;-74
2023/10/26 07:22:34;;;;;;;;;;;;;;;20.13;58.18;98872.69;5035391;28;2359;-74
2023/10/26 07:25:01;;;;;;;;;;;;;;;20.16;58.03;98883.53;5037776;28;2176;-73
2023/10/26 07:27:28;;;;;;;;;;;;;;;20.18;58.53;98885.69;5039911;28;2101;-73
2023/10/26 07:29:54;;;;;;;;;;;;;;;20.17;58.96;98887.84;5039407;28;2086;-73
2023/10/26 07:32:21;;;;;;;;;;;;;;;20.18;58.66;98882.81;5037749;28;6028;-74
2023/10/26 07:34:47;;;;;;;;;;;;;;;20.19;58.92;98885.00;5036770;28;2243;-74
2023/10/26 07:37:14;;;;;;;;;;;;;;;20.20;58.84;98885.72;5038394;28;2252;-74
2023/10/26 07:39:40;;;;;;;;;;;;;;;20.21;58.86;98887.19;5039192;28;2270;-74
2023/10/26 07:42:26;;;;;;;;;;;;;;;20.20;59.02;98897.22;5037039;28;2335;-75
2023/10/26 07:44:53;;;;;;;;;;;;;;;20.20;59.28;98888.59;5036164;28;2260;-74
2023/10/26 07:47:19;;;;;;;;;;;;;;;20.23;59.45;98884.38;5036114;28;2208;-74
2023/10/26 07:49:46;;;;;;;;;;;;;;;20.23;59.19;98885.09;5038002;28;2184;-74
2023/10/26 07:52:14;;;;;;;;;;;;;;;20.20;59.45;98891.47;5038713;28;2134;-77
2023/10/26 07:54:40;;;;;;;;;;;;;;;20.38;59.08;98893.91;5038789;28;2112;-79
2023/10/26 07:57:06;;;;;;;;;;;;;;;20.62;59.17;98894.31;5023293;28;2284;-79
2023/10/26 07:59:33;;;;;;;;;;;;;;;20.64;58.88;98890.75;5024108;28;2338;-78
2023/10/26 08:01:59;;;;;;;;;;;;;;;20.76;59.07;98902.41;5040084;28;6666;-79
2023/10/26 08:04:29;;;;;;;;;;;;;;;20.80;58.75;98908.22;5022721;28;2182;-87
2023/10/26 08:06:56;;;;;;;;;;;;;;;20.87;59.00;98906.88;5039784;28;2577;-79
2023/10/26 08:09:22;;;;;;;;;;;;;;;21.00;58.80;98913.50;5043881;28;2275;-79
2023/10/26 08:11:48;;;;;;;;;;;;;;;21.15;58.67;98914.41;5040434;28;2145;-78
2023/10/26 08:14:15;;;;;;;;;;;;;;;21.22;58.27;98910.16;5038896;28;2205;-77
2023/10/26 08:17:01;;;;;;;;;;;;;;;21.22;58.23;98915.19;5038570;28;2125;-75
2023/10/26 08:19:28;;;;;;;;;;;;;;;21.26;58.02;98913.09;5040092;28;2082;-75
2023/10/26 08:21:55;;;;;;;;;;;;;;;21.26;57.73;98915.97;5039258;28;2601;-74
2023/10/26 08:24:21;;;;;;;;;;;;;;;21.32;57.81;98912.44;5039416;28;2668;-74
2023/10/26 08:26:48;;;;;;;;;;;;;;;21.11;58.18;98912.19;5038054;28;2223;-78
2023/10/26 08:29:15;;;;;;;;;;;;;;;21.06;58.66;98918.59;5035239;28;2232;-75
2023/10/26 08:31:53;;;;;;;;;;;;;;;21.20;58.53;98921.66;5036581;28;6229;-78
2023/10/26 08:34:20;;;;;;;;;;;;;;;21.05;59.20;98926.53;5035395;28;2269;-76
2023/10/26 08:36:47;;;;;;;;;;;;;;;20.88;59.13;98925.56;5037291;28;2305;-75
2023/10/26 08:39:33;;;;;;;;;;;;;;;20.75;59.73;98928.97;5019888;28;2470;-78
2023/10/26 08:42:01;;;;;;;;;;;;;;;20.94;59.33;98933.56;5038616;28;2680;-82
2023/10/26 08:44:28;;;;;;;;;;;;;;;21.03;59.09;98932.25;5020569;28;2347;-80
2023/10/26 08:47:03;;;;;;;;;;;;;;;21.05;59.09;98934.41;5039368;28;2295;-83
2023/10/26 08:49:30;;;;;;;;;;;;;;;21.10;59.34;98933.06;5020990;28;2591;-81
2023/10/26 08:51:57;;;;;;;;;;;;;;;21.09;59.13;98932.31;5024671;28;2264;-83
2023/10/26 08:54:23;;;;;;;;;;;;;;;21.10;59.10;98938.81;5039118;28;2318;-81
2023/10/26 08:56:50;;;;;;;;;;;;;;;21.11;59.44;98946.00;5021101;28;2312;-78
2023/10/26 08:59:16;;;;;;;;;;;;;;;21.08;59.36;98947.41;5041610;28;2090;-85
2023/10/26 09:01:47;;;;;;;;;;;;;;;21.03;59.54;98951.66;5042358;28;6669;-81
2023/10/26 09:04:14;;;;;;;;;;;;;;;21.11;59.23;98951.75;5038549;28;2227;-84
2023/10/26 09:06:47;;;;;;;;;;;;;;;21.12;59.21;98953.94;5041305;28;2177;-78
2023/10/26 09:09:14;;;;;;;;;;;;;;;21.12;59.44;98953.22;5041285;28;1980;-86
2023/10/26 09:11:41;;;;;;;;;;;;;;;21.15;59.49;98951.81;5024773;28;2259;-85
2023/10/26 09:14:33;;;;;;;;;;;;;;;21.05;59.85;98948.78;5038823;28;2162;-81
2023/10/26 09:17:00;;;;;;;;;;;;;;;21.07;60.01;98957.44;5037822;28;2462;-84
2023/10/26 09:19:34;;;;;;;;;;;;;;;21.07;59.71;98957.44;5038867;28;2207;-79
2023/10/26 09:22:02;;;;;;;;;;;;;;;21.29;59.73;98954.88;5007506;28;2234;-77
2023/10/26 09:24:30;;;;;;;;;;;;;;;21.19;59.41;98957.63;4987027;28;1935;-78
2023/10/26 09:26:57;;;;;;;;;;;;;;;21.28;59.34;98952.69;5024274;28;1876;-80
2023/10/26 09:29:40;;;;;;;;;;;;;;;21.41;59.37;98965.09;5023307;28;1930;-79
2023/10/26 09:32:06;;;;;;;;;;;;;;;21.49;59.00;98970.97;5040425;28;6231;-78
2023/10/26 09:34:42;;;;;;;;;;;;;;;21.49;58.84;98970.97;5041561;28;1738;-80
2023/10/26 09:37:09;;;;;;;;;;;;;;;21.39;58.91;98976.56;5038399;28;2514;-85
2023/10/26 09:39:36;;;;;;;;;;;;;;;21.50;59.03;98978.16;5008771;28;2340;-77
2023/10/26 09:42:05;;;;;;;;;;;;;;;21.41;58.94;98982.38;5023554;28;2390;-76
2023/10/26 09:44:31;;;;;;;;;;;;;;;21.38;59.20;98966.50;5038543;28;2117;-76
2023/10/26 09:46:58;;;;;;;;;;;;;;;21.29;59.45;98975.00;5046869;28;1661;-76
2023/10/26 09:49:26;;;;;;;;;;;;;;;21.29;59.55;98983.66;5044925;28;1966;-77
2023/10/26 09:51:53;;;;;;;;;;;;;;;21.30;59.45;98982.25;5046305;28;1606;-75
2023/10/26 09:54:24;;;;;;;;;;;;;;;21.18;59.49;98990.69;5044802;28;1669;-77
2023/10/26 09:56:56;;;;;;;;;;;;;;;20.93;60.53;98984.59;5042678;28;2274;-80
2023/10/26 09:59:23;;;;;;;;;;;;;;;20.96;60.92;98982.50;5040403;28;2303;-82
2023/10/26 10:01:49;;;;;;;;;;;;;;;20.87;60.77;98980.94;5022459;28;6066;-80
2023/10/26 10:04:18;;;;;;;;;;;;;;;20.77;61.03;98983.66;5039729;28;2323;-80
2023/10/26 10:06:55;;;;;;;;;;;;;;;20.54;61.01;98980.41;5042047;28;2329;-82
2023/10/26 10:09:22;;;;;;;;;;;;;;;20.60;61.18;98974.06;5045925;28;1906;-82
2023/10/26 10:12:04;;;;;;;;;;;;;;;20.64;61.41;98989.22;5042611;28;2289;-82
2023/10/26 10:14:54;;;;;;;;;;;;;;;20.64;61.71;98983.47;5042979;28;1627;-86
2023/10/26 10:17:59;;;;;;;;;;;;;;;20.64;61.93;98977.72;5044760;28;2045;-81
2023/10/26 10:20:26;;;;;;;;;;;;;;;20.53;61.98;98981.84;5041018;28;2333;-82
2023/10/26 10:22:53;;;;;;;;;;;;;;;20.59;62.03;98981.97;5041553;28;1582;-76
2023/10/26 10:25:23;;;;;;;;;;;;;;;20.77;62.19;98981.50;5039806;28;2352;-92
2023/10/26 10:27:49;;;;;;;;;;;;;;;20.94;61.83;98985.34;5027755;28;2251;-86
2023/10/26 10:30:18;;;;;;;;;;;;;;;20.97;61.33;98986.09;5026500;28;6560;-86
2023/10/26 10:32:47;;;;;;;;;;;;;;;21.03;61.35;98986.19;5039853;28;2408;-83
2023/10/26 10:35:32;;;;;;;;;;;;;;;21.04;61.22;98987.63;5038789;28;2576;-80
2023/10/26 10:38:15;;;;;;;;;;;;;;;21.01;61.38;98989.03;5040524;28;2361;-86
2023/10/26 10:40:53;;;;;;;;;;;;;;;20.99;61.32;98986.13;5044251;28;2033;-84
2023/10/26 10:43:45;;;;;;;;;;;;;;;20.98;61.40;98985.41;5040488;28;2200;-76
2023/10/26 10:46:16;;;;;;;;;;;;;;;20.91;61.27;98986.72;5039033;28;2324;-76
2023/10/26 10:49:03;;;;;;;;;;;;;;;21.06;61.02;98994.13;5039239;28;2308;-83
2023/10/26 10:51:36;;;;;;;;;;;;;;;21.13;61.06;98995.66;5035416;28;1914;-79
2023/10/26 10:54:03;;;;;;;;;;;;;;;21.27;60.40;98991.53;5042927;28;2439;-87
2023/10/26 10:56:48;;;;;;;;;;;;;;;21.39;60.06;98991.69;5045744;28;2414;-82
2023/10/26 10:59:25;;;;;;;;;;;;;;;21.41;59.95;98988.13;5047597;28;2455;-85
2023/10/26 11:02:07;;;;;;;;;;;;;;;21.42;60.29;98992.47;5028505;28;6073;-80
2023/10/26 11:04:33;;;;;;;;;;;;;;;21.48;59.74;98995.41;5040763;28;2419;-85
2023/10/26 11:07:09;;;;;;;;;;;;;;;21.55;60.19;98991.19;5043008;28;2329;-86
2023/10/26 11:09:39;;;;;;;;;;;;;;;21.53;60.12;98994.03;5020911;28;2406;-90
2023/10/26 11:12:09;;;;;;;;;;;;;;;21.70;59.41;98989.19;5045034;28;2817;-85
2023/10/26 11:14:36;;;;;;;;;;;;;;;21.60;59.52;98991.94;5037654;28;2486;-84
2023/10/26 11:17:02;;;;;;;;;;;;;;;21.45;59.89;98993.94;5041208;28;2322;-83
2023/10/26 11:19:29;;;;;;;;;;;;;;;21.36;59.86;98992.38;5042239;28;2393;-79
2023/10/26 11:21:55;;;;;;;;;;;;;;;21.28;60.34;98993.72;5026876;28;1804;-83
2023/10/26 11:24:28;;;;;;;;;;;;;;;21.28;59.91;98987.97;5024196;28;2351;-79
2023/10/26 11:27:05;;;;;;;;;;;;;;;21.25;60.15;98989.34;5041569;28;2375;-81
2023/10/26 11:29:31;;;;;;;;;;;;;;;21.38;60.02;98990.25;5041780;28;2642;-84
2023/10/26 11:31:57;;;;;;;;;;;;;;;21.43;59.94;98996.81;5040519;28;6288;-81
2023/10/26 11:34:27;;;;;;;;;;;;;;;21.28;60.21;98990.84;5041008;28;2271;-89
2023/10/26 11:36:54;;;;;;;;;;;;;;;21.05;60.86;99000.59;5022806;28;2508;-88
2023/10/26 11:39:20;;;;;;;;;;;;;;;21.20;60.82;98998.66;5042743;28;2361;-83
2023/10/26 11:41:54;;;;;;;;;;;;;;;21.30;60.24;98996.63;5041274;28;2533;-88
2023/10/26 11:44:26;;;;;;;;;;;;;;;21.36;60.13;99003.88;5041220;28;2376;-89
2023/10/26 11:46:56;;;;;;;;;;;;;;;21.55;60.42;98996.94;5040446;28;2514;-81
2023/10/26 11:49:35;;;;;;;;;;;;;;;21.62;59.74;98998.47;5022260;28;2454;-84
2023/10/26 11:52:02;;;;;;;;;;;;;;;21.59;59.97;98997.00;5043737;28;2336;-83
2023/10/26 11:54:29;;;;;;;;;;;;;;;21.71;59.52;99005.75;5037298;28;2539;-83
2023/10/26 11:56:56;;;;;;;;;;;;;;;21.66;59.56;99007.16;5042083;28;2610;-77
2023/10/26 11:59:22;;;;;;;;;;;;;;;21.60;59.71;99015.75;5041871;28;2334;-80
2023/10/26 12:01:49;;;;;;;;;;;;;;;21.78;59.07;99014.47;5041791;28;6392;-78
2023/10/26 12:04:15;;;;;;;;;;;;;;;21.82;59.21;99011.66;5041909;28;2258;-78
2023/10/26 12:06:42;;;;;;;;;;;;;;;21.68;58.69;99015.81;5043142;28;2327;-78
2023/10/26 12:09:08;;;;;;;;;;;;;;;21.50;59.58;99015.59;5041069;28;2314;-78
2023/10/26 12:11:35;;;;;;;;;;;;;;;21.48;60.01;99009.81;5040228;28;2283;-78
2023/10/26 12:14:01;;;;;;;;;;;;;;;21.66;59.68;99012.91;5038898;28;2326;-79
2023/10/26 12:16:28;;;;;;;;;;;;;;;21.70;59.10;99009.38;5041189;28;2293;-76
2023/10/26 12:18:54;;;;;;;;;;;;;;;21.75;59.25;99008.69;5041288;28;2300;-78
2023/10/26 12:21:20;;;;;;;;;;;;;;;21.75;59.25;99019.50;5041617;28;2377;-78
2023/10/26 12:23:47;;;;;;;;;;;;;;;21.83;58.88;99030.38;5039031;28;2301;-77
2023/10/26 12:26:13;;;;;;;;;;;;;;;21.62;59.51;99023.66;5040615;28;2291;-82
2023/10/26 12:28:40;;;;;;;;;;;;;;;21.32;59.74;99034.06;5040398;28;2327;-79
2023/10/26 12:31:06;;;;;;;;;;;;;;;21.19;60.18;99035.34;5043049;28;6199;-80
2023/10/26 12:33:33;;;;;;;;;;;;;;;21.12;60.38;99039.56;5037716;28;2297;-77
2023/10/26 12:36:05;;;;;;;;;;;;;;;21.42;60.05;99038.56;5025409;28;2410;-85
2023/10/26 12:38:31;;;;;;;;;;;;;;;21.42;59.47;99035.66;5041109;28;2380;-82
2023/10/26 12:40:57;;;;;;;;;;;;;;;21.32;60.65;99030.47;5040344;28;2246;-77
2023/10/26 12:43:24;;;;;;;;;;;;;;;21.52;59.33;99038.66;5036726;28;2146;-74
2023/10/26 12:45:50;;;;;;;;;;;;;;;21.57;59.47;99028.66;5017117;28;2367;-75
2023/10/26 12:48:17;;;;;;;;;;;;;;;21.54;59.65;99035.81;5040164;28;2360;-75
2023/10/26 12:50:43;;;;;;;;;;;;;;;21.49;59.32;99042.97;5018369;28;2357;-74
2023/10/26 12:53:09;;;;;;;;;;;;;;;21.49;59.47;99042.97;5038786;28;2417;-79
2023/10/26 12:55:36;;;;;;;;;;;;;;;21.32;59.41;99045.56;5039599;28;2247;-77
2023/10/26 12:58:02;;;;;;;;;;;;;;;21.40;59.88;99047.13;5039691;28;2274;-80
2023/10/26 13:00:30;;;;;;;;;;;;;;;21.33;59.99;99044.16;5005479;28;6251;-77
2023/10/26 13:02:57;;;;;;;;;;;;;;;21.75;59.13;99043.25;5019255;28;2298;-79